sensor_id;sensor_type;location;lat;lon;timestamp;pressure;altitude;pressure_sealevel;temperature;humidity
33506;BME280;19843;51.040;13.782;2023-03-21T00:01:48;100413.28;;;10.76;100.00
33506;BME280;19843;51.040;13.782;2023-03-21T00:04:17;100408.38;;;10.70;100.00
33506;BME280;19843;51.040;13.782;2023-03-21T00:06:44;100412.75;;;10.71;100.00
33506;BME280;19843;51.040;13.782;2023-03-21T00:09:11;100412.22;;;10.65;100.00
33506;BME280;19843;51.040;13.782;2023-03-21T00:11:39;100414.59;;;10.83;99.93
33506;BME280;19843;51.040;13.782;2023-03-21T00:14:06;100414.84;;;10.93;99.25
33506;BME280;19843;51.040;13.782;2023-03-21T00:16:39;100418.38;;;10.93;98.77
33506;BME280;19843;51.040;13.782;2023-03-21T00:19:10;100420.41;;;10.90;98.78
33506;BME280;19843;51.040;13.782;2023-03-21T00:21:40;100413.22;;;10.90;99.22
33506;BME280;19843;51.040;13.782;2023-03-21T00:24:29;100421.06;;;10.93;99.51
33506;BME280;19843;51.040;13.782;2023-03-21T00:26:56;100423.22;;;10.88;99.23
33506;BME280;19843;51.040;13.782;2023-03-21T00:29:43;100421.34;;;10.76;98.03
33506;BME280;19843;51.040;13.782;2023-03-21T00:32:11;100428.22;;;10.80;98.65
33506;BME280;19843;51.040;13.782;2023-03-21T00:34:38;100426.97;;;10.85;99.64
33506;BME280;19843;51.040;13.782;2023-03-21T00:37:27;100427.19;;;10.95;98.74
33506;BME280;19843;51.040;13.782;2023-03-21T00:39:54;100431.69;;;10.95;98.50
33506;BME280;19843;51.040;13.782;2023-03-21T00:42:21;100427.94;;;10.97;97.73
33506;BME280;19843;51.040;13.782;2023-03-21T00:44:49;100422.66;;;10.96;97.81
33506;BME280;19843;51.040;13.782;2023-03-21T00:47:16;100415.78;;;10.92;99.02
33506;BME280;19843;51.040;13.782;2023-03-21T00:49:43;100419.75;;;10.86;99.30
33506;BME280;19843;51.040;13.782;2023-03-21T00:52:11;100415.34;;;10.85;99.71
33506;BME280;19843;51.040;13.782;2023-03-21T00:54:51;100414.28;;;10.87;99.99
33506;BME280;19843;51.040;13.782;2023-03-21T00:57:18;100409.78;;;10.88;100.00
33506;BME280;19843;51.040;13.782;2023-03-21T00:59:57;100406.13;;;10.89;100.00
33506;BME280;19843;51.040;13.782;2023-03-21T01:02:25;100405.22;;;10.63;100.00
33506;BME280;19843;51.040;13.782;2023-03-21T01:04:52;100409.31;;;10.69;99.72
33506;BME280;19843;51.040;13.782;2023-03-21T01:07:19;100418.59;;;10.50;98.89
33506;BME280;19843;51.040;13.782;2023-03-21T01:09:47;100414.38;;;10.46;99.17
33506;BME280;19843;51.040;13.782;2023-03-21T01:12:17;100412.47;;;10.48;98.12
33506;BME280;19843;51.040;13.782;2023-03-21T01:14:44;100427.47;;;10.38;98.93
33506;BME280;19843;51.040;13.782;2023-03-21T01:17:11;100427.84;;;10.32;98.67
33506;BME280;19843;51.040;13.782;2023-03-21T01:19:39;100422.81;;;10.40;98.85
33506;BME280;19843;51.040;13.782;2023-03-21T01:22:17;100422.44;;;10.46;98.40
33506;BME280;19843;51.040;13.782;2023-03-21T01:24:44;100425.66;;;10.51;98.06
33506;BME280;19843;51.040;13.782;2023-03-21T01:27:23;100421.22;;;10.37;98.43
33506;BME280;19843;51.040;13.782;2023-03-21T01:29:50;100420.72;;;10.45;97.72
33506;BME280;19843;51.040;13.782;2023-03-21T01:32:18;100425.06;;;10.33;98.83
33506;BME280;19843;51.040;13.782;2023-03-21T01:34:45;100420.94;;;10.28;99.23
33506;BME280;19843;51.040;13.782;2023-03-21T01:37:12;100424.97;;;10.20;99.78
33506;BME280;19843;51.040;13.782;2023-03-21T01:39:42;100419.03;;;10.30;99.55
33506;BME280;19843;51.040;13.782;2023-03-21T01:42:11;100427.47;;;10.38;99.49
33506;BME280;19843;51.040;13.782;2023-03-21T01:44:52;100420.16;;;10.40;98.34
33506;BME280;19843;51.040;13.782;2023-03-21T01:47:19;100423.88;;;10.37;97.94
33506;BME280;19843;51.040;13.782;2023-03-21T01:49:48;100423.13;;;10.35;98.21
33506;BME280;19843;51.040;13.782;2023-03-21T01:52:19;100418.81;;;10.47;97.99
33506;BME280;19843;51.040;13.782;2023-03-21T01:55:02;100419.19;;;10.41;97.91
33506;BME280;19843;51.040;13.782;2023-03-21T01:57:30;100422.28;;;10.35;96.82
33506;BME280;19843;51.040;13.782;2023-03-21T02:00:12;100423.28;;;10.47;96.70
33506;BME280;19843;51.040;13.782;2023-03-21T02:02:41;100411.00;;;10.30;95.28
33506;BME280;19843;51.040;13.782;2023-03-21T02:05:29;100413.53;;;10.45;95.48
33506;BME280;19843;51.040;13.782;2023-03-21T02:07:59;100405.44;;;10.33;95.74
33506;BME280;19843;51.040;13.782;2023-03-21T02:10:27;100399.50;;;10.28;96.57
33506;BME280;19843;51.040;13.782;2023-03-21T02:12:56;100401.41;;;10.25;97.12
33506;BME280;19843;51.040;13.782;2023-03-21T02:15:35;100400.94;;;10.19;97.23
33506;BME280;19843;51.040;13.782;2023-03-21T02:18:05;100405.25;;;10.21;96.77
33506;BME280;19843;51.040;13.782;2023-03-21T02:26:18;100407.06;;;10.21;96.15
33506;BME280;19843;51.040;13.782;2023-03-21T02:28:59;100398.78;;;10.11;94.31
33506;BME280;19843;51.040;13.782;2023-03-21T02:31:37;100394.13;;;10.00;93.69
33506;BME280;19843;51.040;13.782;2023-03-21T02:37:02;100398.56;;;10.14;92.80
33506;BME280;19843;51.040;13.782;2023-03-21T02:39:33;100396.44;;;10.19;91.19
33506;BME280;19843;51.040;13.782;2023-03-21T02:42:06;100393.47;;;10.24;91.71
33506;BME280;19843;51.040;13.782;2023-03-21T02:44:38;100405.50;;;10.04;91.79
33506;BME280;19843;51.040;13.782;2023-03-21T02:47:08;100401.34;;;10.13;91.75
33506;BME280;19843;51.040;13.782;2023-03-21T02:49:39;100406.09;;;9.95;92.88
33506;BME280;19843;51.040;13.782;2023-03-21T02:52:10;100400.97;;;9.77;94.56
33506;BME280;19843;51.040;13.782;2023-03-21T02:54:57;100399.63;;;9.70;93.25
33506;BME280;19843;51.040;13.782;2023-03-21T02:57:26;100401.03;;;9.90;93.10
33506;BME280;19843;51.040;13.782;2023-03-21T03:00:08;100401.91;;;9.91;90.77
33506;BME280;19843;51.040;13.782;2023-03-21T03:02:41;100402.78;;;9.77;89.91
33506;BME280;19843;51.040;13.782;2023-03-21T03:05:13;100405.00;;;9.70;90.59
33506;BME280;19843;51.040;13.782;2023-03-21T03:07:52;100401.16;;;9.60;89.72
33506;BME280;19843;51.040;13.782;2023-03-21T03:10:25;100408.41;;;9.58;88.72
33506;BME280;19843;51.040;13.782;2023-03-21T03:13:00;100400.50;;;9.56;88.98
33506;BME280;19843;51.040;13.782;2023-03-21T03:15:33;100395.91;;;9.44;89.19
33506;BME280;19843;51.040;13.782;2023-03-21T03:18:06;100406.31;;;9.20;90.49
33506;BME280;19843;51.040;13.782;2023-03-21T03:20:37;100399.63;;;9.27;91.08
33506;BME280;19843;51.040;13.782;2023-03-21T03:23:14;100402.69;;;9.35;90.72
33506;BME280;19843;51.040;13.782;2023-03-21T03:25:46;100400.22;;;9.18;91.01
33506;BME280;19843;51.040;13.782;2023-03-21T03:28:15;100398.09;;;9.37;90.50
33506;BME280;19843;51.040;13.782;2023-03-21T03:30:44;100393.50;;;9.39;91.11
33506;BME280;19843;51.040;13.782;2023-03-21T03:33:32;100393.34;;;9.43;91.43
33506;BME280;19843;51.040;13.782;2023-03-21T03:36:02;100398.41;;;9.47;91.67
33506;BME280;19843;51.040;13.782;2023-03-21T03:38:33;100403.44;;;9.37;92.66
33506;BME280;19843;51.040;13.782;2023-03-21T03:41:04;100395.53;;;9.36;92.58
33506;BME280;19843;51.040;13.782;2023-03-21T03:43:35;100398.09;;;9.37;92.71
33506;BME280;19843;51.040;13.782;2023-03-21T03:46:07;100398.56;;;9.44;92.17
33506;BME280;19843;51.040;13.782;2023-03-21T03:48:39;100402.47;;;9.24;92.71
33506;BME280;19843;51.040;13.782;2023-03-21T03:51:13;100401.66;;;9.38;92.45
33506;BME280;19843;51.040;13.782;2023-03-21T03:53:43;100399.84;;;9.38;92.42
33506;BME280;19843;51.040;13.782;2023-03-21T03:56:12;100396.38;;;9.51;92.49
33506;BME280;19843;51.040;13.782;2023-03-21T03:58:39;100397.16;;;9.53;92.50
33506;BME280;19843;51.040;13.782;2023-03-21T04:01:11;100398.28;;;9.49;92.89
33506;BME280;19843;51.040;13.782;2023-03-21T04:03:39;100400.78;;;9.52;92.48
33506;BME280;19843;51.040;13.782;2023-03-21T04:06:16;100403.94;;;9.44;93.20
33506;BME280;19843;51.040;13.782;2023-03-21T04:08:45;100402.72;;;9.50;92.69
33506;BME280;19843;51.040;13.782;2023-03-21T04:11:12;100396.19;;;9.39;93.21
33506;BME280;19843;51.040;13.782;2023-03-21T04:13:39;100404.72;;;9.32;94.26
33506;BME280;19843;51.040;13.782;2023-03-21T04:16:07;100402.81;;;9.34;94.60
33506;BME280;19843;51.040;13.782;2023-03-21T04:18:35;100400.28;;;9.31;95.08
33506;BME280;19843;51.040;13.782;2023-03-21T04:21:06;100405.75;;;9.29;94.96
33506;BME280;19843;51.040;13.782;2023-03-21T04:23:33;100400.69;;;9.39;94.75
33506;BME280;19843;51.040;13.782;2023-03-21T04:26:02;100407.75;;;9.40;94.59
33506;BME280;19843;51.040;13.782;2023-03-21T04:28:30;100406.13;;;9.37;94.93
33506;BME280;19843;51.040;13.782;2023-03-21T04:30:58;100400.78;;;9.37;95.32
33506;BME280;19843;51.040;13.782;2023-03-21T04:33:36;100404.78;;;9.45;94.83
33506;BME280;19843;51.040;13.782;2023-03-21T04:36:04;100406.31;;;9.49;94.57
33506;BME280;19843;51.040;13.782;2023-03-21T04:38:31;100401.84;;;9.49;94.24
33506;BME280;19843;51.040;13.782;2023-03-21T04:40:59;100400.97;;;9.49;94.17
33506;BME280;19843;51.040;13.782;2023-03-21T04:43:28;100399.72;;;9.40;94.90
33506;BME280;19843;51.040;13.782;2023-03-21T04:45:56;100402.50;;;9.38;94.90
33506;BME280;19843;51.040;13.782;2023-03-21T04:48:23;100403.38;;;9.25;95.25
33506;BME280;19843;51.040;13.782;2023-03-21T04:50:51;100398.22;;;9.36;94.95
33506;BME280;19843;51.040;13.782;2023-03-21T04:53:18;100402.88;;;9.32;95.06
33506;BME280;19843;51.040;13.782;2023-03-21T04:55:46;100400.78;;;9.23;95.39
33506;BME280;19843;51.040;13.782;2023-03-21T04:58:18;100402.41;;;9.26;95.28
33506;BME280;19843;51.040;13.782;2023-03-21T05:00:46;100401.25;;;9.30;95.11
33506;BME280;19843;51.040;13.782;2023-03-21T05:03:14;100404.69;;;9.46;94.83
33506;BME280;19843;51.040;13.782;2023-03-21T05:05:44;100403.06;;;9.44;94.84
33506;BME280;19843;51.040;13.782;2023-03-21T05:08:12;100404.13;;;9.41;94.79
33506;BME280;19843;51.040;13.782;2023-03-21T05:10:40;100403.28;;;9.40;95.18
33506;BME280;19843;51.040;13.782;2023-03-21T05:13:08;100398.97;;;9.38;95.29
33506;BME280;19843;51.040;13.782;2023-03-21T05:15:35;100405.34;;;9.35;95.55
33506;BME280;19843;51.040;13.782;2023-03-21T05:18:05;100405.00;;;9.41;95.78
33506;BME280;19843;51.040;13.782;2023-03-21T05:20:36;100401.84;;;9.49;95.24
33506;BME280;19843;51.040;13.782;2023-03-21T05:23:07;100410.34;;;9.56;94.53
33506;BME280;19843;51.040;13.782;2023-03-21T05:25:36;100414.06;;;9.53;94.75
33506;BME280;19843;51.040;13.782;2023-03-21T05:28:03;100412.66;;;9.48;94.99
33506;BME280;19843;51.040;13.782;2023-03-21T05:30:31;100408.63;;;9.55;94.81
33506;BME280;19843;51.040;13.782;2023-03-21T05:32:58;100405.38;;;9.50;94.58
33506;BME280;19843;51.040;13.782;2023-03-21T05:35:27;100411.09;;;9.58;94.28
33506;BME280;19843;51.040;13.782;2023-03-21T05:37:54;100414.63;;;9.44;94.51
33506;BME280;19843;51.040;13.782;2023-03-21T05:40:22;100410.34;;;9.56;92.63
33506;BME280;19843;51.040;13.782;2023-03-21T05:42:49;100418.34;;;9.56;91.70
33506;BME280;19843;51.040;13.782;2023-03-21T05:45:17;100416.84;;;9.66;91.88
33506;BME280;19843;51.040;13.782;2023-03-21T05:47:44;100412.03;;;9.71;91.32
33506;BME280;19843;51.040;13.782;2023-03-21T05:50:12;100408.44;;;9.72;91.27
33506;BME280;19843;51.040;13.782;2023-03-21T05:52:40;100411.69;;;9.34;90.23
33506;BME280;19843;51.040;13.782;2023-03-21T05:55:08;100402.59;;;9.51;90.27
33506;BME280;19843;51.040;13.782;2023-03-21T05:57:35;100415.03;;;9.38;90.34
33506;BME280;19843;51.040;13.782;2023-03-21T06:00:06;100412.72;;;9.46;88.79
33506;BME280;19843;51.040;13.782;2023-03-21T06:02:34;100412.47;;;9.65;88.43
33506;BME280;19843;51.040;13.782;2023-03-21T06:05:02;100413.78;;;9.44;89.39
33506;BME280;19843;51.040;13.782;2023-03-21T06:07:29;100416.16;;;9.62;89.64
33506;BME280;19843;51.040;13.782;2023-03-21T06:09:58;100420.88;;;9.59;89.74
33506;BME280;19843;51.040;13.782;2023-03-21T06:12:25;100423.91;;;9.67;89.69
33506;BME280;19843;51.040;13.782;2023-03-21T06:14:53;100421.31;;;9.51;89.27
33506;BME280;19843;51.040;13.782;2023-03-21T06:17:20;100414.63;;;9.73;89.14
33506;BME280;19843;51.040;13.782;2023-03-21T06:19:47;100416.75;;;9.68;87.55
33506;BME280;19843;51.040;13.782;2023-03-21T06:22:14;100415.28;;;9.76;88.41
33506;BME280;19843;51.040;13.782;2023-03-21T06:24:42;100417.47;;;9.98;88.27
33506;BME280;19843;51.040;13.782;2023-03-21T06:27:10;100422.91;;;9.97;87.32
33506;BME280;19843;51.040;13.782;2023-03-21T06:29:38;100422.34;;;10.06;86.92
33506;BME280;19843;51.040;13.782;2023-03-21T06:32:06;100426.28;;;9.86;86.76
33506;BME280;19843;51.040;13.782;2023-03-21T06:34:33;100419.91;;;9.74;86.11
33506;BME280;19843;51.040;13.782;2023-03-21T06:37:03;100424.09;;;9.78;84.71
33506;BME280;19843;51.040;13.782;2023-03-21T06:39:30;100433.47;;;9.71;85.80
33506;BME280;19843;51.040;13.782;2023-03-21T06:41:58;100427.53;;;9.66;86.98
33506;BME280;19843;51.040;13.782;2023-03-21T06:44:27;100433.75;;;9.67;86.70
33506;BME280;19843;51.040;13.782;2023-03-21T06:46:55;100435.88;;;9.61;87.08
33506;BME280;19843;51.040;13.782;2023-03-21T06:49:22;100442.38;;;9.57;87.07
33506;BME280;19843;51.040;13.782;2023-03-21T06:51:51;100443.03;;;9.75;87.43
33506;BME280;19843;51.040;13.782;2023-03-21T06:54:18;100439.88;;;9.69;87.52
33506;BME280;19843;51.040;13.782;2023-03-21T06:56:46;100445.03;;;9.57;87.25
33506;BME280;19843;51.040;13.782;2023-03-21T06:59:13;100443.91;;;9.61;86.39
33506;BME280;19843;51.040;13.782;2023-03-21T07:01:42;100439.84;;;9.83;86.37
33506;BME280;19843;51.040;13.782;2023-03-21T07:04:09;100442.63;;;9.96;85.76
33506;BME280;19843;51.040;13.782;2023-03-21T07:06:36;100446.56;;;9.76;85.97
33506;BME280;19843;51.040;13.782;2023-03-21T07:09:04;100447.03;;;9.82;86.24
33506;BME280;19843;51.040;13.782;2023-03-21T07:11:32;100451.13;;;10.02;85.57
33506;BME280;19843;51.040;13.782;2023-03-21T07:13:59;100443.00;;;10.04;84.61
33506;BME280;19843;51.040;13.782;2023-03-21T07:16:26;100451.03;;;10.04;85.56
33506;BME280;19843;51.040;13.782;2023-03-21T07:18:55;100448.44;;;10.31;84.46
33506;BME280;19843;51.040;13.782;2023-03-21T07:21:22;100443.41;;;10.39;84.54
33506;BME280;19843;51.040;13.782;2023-03-21T07:23:50;100444.47;;;10.37;84.23
33506;BME280;19843;51.040;13.782;2023-03-21T07:26:17;100447.31;;;10.48;84.52
33506;BME280;19843;51.040;13.782;2023-03-21T07:28:44;100447.84;;;10.68;84.24
33506;BME280;19843;51.040;13.782;2023-03-21T07:31:12;100449.00;;;10.63;82.79
33506;BME280;19843;51.040;13.782;2023-03-21T07:33:40;100448.31;;;10.33;83.76
33506;BME280;19843;51.040;13.782;2023-03-21T07:36:09;100452.63;;;10.21;84.02
33506;BME280;19843;51.040;13.782;2023-03-21T07:38:38;100450.69;;;10.37;84.31
33506;BME280;19843;51.040;13.782;2023-03-21T07:41:06;100451.53;;;10.52;84.66
33506;BME280;19843;51.040;13.782;2023-03-21T07:43:33;100453.88;;;10.30;85.08
33506;BME280;19843;51.040;13.782;2023-03-21T07:46:04;100456.06;;;10.23;86.33
33506;BME280;19843;51.040;13.782;2023-03-21T07:48:32;100452.16;;;10.29;85.68
33506;BME280;19843;51.040;13.782;2023-03-21T07:50:59;100457.78;;;10.24;86.54
33506;BME280;19843;51.040;13.782;2023-03-21T07:53:28;100454.97;;;10.54;85.42
33506;BME280;19843;51.040;13.782;2023-03-21T07:55:56;100446.41;;;10.35;86.33
33506;BME280;19843;51.040;13.782;2023-03-21T07:58:23;100452.47;;;10.51;86.02
33506;BME280;19843;51.040;13.782;2023-03-21T08:00:51;100460.94;;;10.45;85.64
33506;BME280;19843;51.040;13.782;2023-03-21T08:03:19;100450.06;;;10.34;83.41
33506;BME280;19843;51.040;13.782;2023-03-21T08:05:46;100450.16;;;10.59;83.95
33506;BME280;19843;51.040;13.782;2023-03-21T08:08:13;100446.28;;;10.91;82.96
33506;BME280;19843;51.040;13.782;2023-03-21T08:10:42;100445.91;;;10.82;83.46
33506;BME280;19843;51.040;13.782;2023-03-21T08:13:11;100444.28;;;11.20;82.48
33506;BME280;19843;51.040;13.782;2023-03-21T08:15:38;100447.81;;;11.33;80.56
33506;BME280;19843;51.040;13.782;2023-03-21T08:18:07;100448.91;;;11.43;79.32
33506;BME280;19843;51.040;13.782;2023-03-21T08:20:35;100440.06;;;11.67;79.00
33506;BME280;19843;51.040;13.782;2023-03-21T08:23:02;100444.47;;;11.81;78.60
33506;BME280;19843;51.040;13.782;2023-03-21T08:25:29;100443.06;;;12.01;78.55
33506;BME280;19843;51.040;13.782;2023-03-21T08:27:58;100446.06;;;12.09;77.65
33506;BME280;19843;51.040;13.782;2023-03-21T08:30:26;100444.38;;;11.95;75.82
33506;BME280;19843;51.040;13.782;2023-03-21T08:32:57;100439.84;;;12.08;74.83
33506;BME280;19843;51.040;13.782;2023-03-21T08:35:27;100443.66;;;12.17;75.59
33506;BME280;19843;51.040;13.782;2023-03-21T08:37:54;100448.31;;;12.15;75.90
33506;BME280;19843;51.040;13.782;2023-03-21T08:40:22;100440.72;;;11.96;76.50
33506;BME280;19843;51.040;13.782;2023-03-21T08:42:49;100445.69;;;11.77;76.44
33506;BME280;19843;51.040;13.782;2023-03-21T08:45:18;100441.44;;;12.11;77.42
33506;BME280;19843;51.040;13.782;2023-03-21T08:47:46;100444.38;;;11.95;75.92
33506;BME280;19843;51.040;13.782;2023-03-21T08:50:14;100441.97;;;12.16;76.20
33506;BME280;19843;51.040;13.782;2023-03-21T08:52:42;100437.94;;;11.98;75.72
33506;BME280;19843;51.040;13.782;2023-03-21T08:55:10;100435.81;;;12.27;77.96
33506;BME280;19843;51.040;13.782;2023-03-21T08:57:38;100428.47;;;12.53;74.58
33506;BME280;19843;51.040;13.782;2023-03-21T09:00:05;100432.50;;;12.47;74.78
33506;BME280;19843;51.040;13.782;2023-03-21T09:02:38;100431.50;;;12.72;73.73
33506;BME280;19843;51.040;13.782;2023-03-21T09:05:06;100435.50;;;12.91;71.98
33506;BME280;19843;51.040;13.782;2023-03-21T09:07:35;100431.41;;;12.85;72.86
33506;BME280;19843;51.040;13.782;2023-03-21T09:10:02;100428.69;;;12.26;73.98
33506;BME280;19843;51.040;13.782;2023-03-21T09:12:47;100432.47;;;12.71;73.26
33506;BME280;19843;51.040;13.782;2023-03-21T09:15:15;100426.47;;;13.03;72.93
33506;BME280;19843;51.040;13.782;2023-03-21T09:17:44;100429.72;;;13.20;70.37
33506;BME280;19843;51.040;13.782;2023-03-21T09:20:15;100424.44;;;12.83;70.77
33506;BME280;19843;51.040;13.782;2023-03-21T09:22:44;100428.72;;;13.21;72.20
33506;BME280;19843;51.040;13.782;2023-03-21T09:25:11;100431.50;;;13.54;69.81
33506;BME280;19843;51.040;13.782;2023-03-21T09:27:39;100423.91;;;13.60;68.23
33506;BME280;19843;51.040;13.782;2023-03-21T09:30:07;100422.94;;;13.61;67.85
33506;BME280;19843;51.040;13.782;2023-03-21T09:32:35;100429.91;;;13.52;68.09
33506;BME280;19843;51.040;13.782;2023-03-21T09:35:04;100425.13;;;13.89;67.96
33506;BME280;19843;51.040;13.782;2023-03-21T09:37:33;100425.72;;;13.93;68.79
33506;BME280;19843;51.040;13.782;2023-03-21T09:40:03;100422.78;;;13.85;66.71
33506;BME280;19843;51.040;13.782;2023-03-21T09:42:34;100419.09;;;14.08;66.15
33506;BME280;19843;51.040;13.782;2023-03-21T09:45:06;100414.69;;;14.07;68.72
33506;BME280;19843;51.040;13.782;2023-03-21T09:47:37;100420.84;;;13.87;67.97
33506;BME280;19843;51.040;13.782;2023-03-21T09:50:13;100415.69;;;13.95;69.36
33506;BME280;19843;51.040;13.782;2023-03-21T09:52:43;100425.50;;;13.73;67.04
33506;BME280;19843;51.040;13.782;2023-03-21T09:55:14;100419.00;;;13.42;68.82
33506;BME280;19843;51.040;13.782;2023-03-21T09:57:45;100420.59;;;13.45;69.89
33506;BME280;19843;51.040;13.782;2023-03-21T10:00:15;100415.31;;;13.54;67.24
33506;BME280;19843;51.040;13.782;2023-03-21T10:02:46;100410.78;;;13.66;67.52
33506;BME280;19843;51.040;13.782;2023-03-21T10:05:18;100405.75;;;13.95;67.41
33506;BME280;19843;51.040;13.782;2023-03-21T10:07:49;100411.00;;;14.19;66.41
33506;BME280;19843;51.040;13.782;2023-03-21T10:10:19;100402.34;;;14.37;65.65
33506;BME280;19843;51.040;13.782;2023-03-21T10:12:49;100403.09;;;14.39;66.52
33506;BME280;19843;51.040;13.782;2023-03-21T10:15:18;100395.84;;;14.39;65.31
33506;BME280;19843;51.040;13.782;2023-03-21T10:17:47;100398.41;;;14.41;66.76
33506;BME280;19843;51.040;13.782;2023-03-21T10:20:20;100389.81;;;14.04;66.44
33506;BME280;19843;51.040;13.782;2023-03-21T10:22:49;100397.94;;;13.92;65.95
33506;BME280;19843;51.040;13.782;2023-03-21T10:25:17;100394.25;;;13.71;66.61
33506;BME280;19843;51.040;13.782;2023-03-21T10:27:45;100385.44;;;13.69;68.40
33506;BME280;19843;51.040;13.782;2023-03-21T10:30:19;100385.31;;;13.82;67.46
33506;BME280;19843;51.040;13.782;2023-03-21T10:32:49;100383.16;;;14.19;67.59
33506;BME280;19843;51.040;13.782;2023-03-21T10:35:17;100374.78;;;14.33;67.43
33506;BME280;19843;51.040;13.782;2023-03-21T10:37:46;100368.34;;;14.46;67.45
33506;BME280;19843;51.040;13.782;2023-03-21T10:40:14;100369.75;;;14.72;66.26
33506;BME280;19843;51.040;13.782;2023-03-21T10:42:42;100378.56;;;14.42;66.92
33506;BME280;19843;51.040;13.782;2023-03-21T10:45:14;100370.19;;;14.56;66.37
33506;BME280;19843;51.040;13.782;2023-03-21T10:47:42;100377.19;;;14.48;67.82
33506;BME280;19843;51.040;13.782;2023-03-21T10:50:14;100375.50;;;14.79;66.30
33506;BME280;19843;51.040;13.782;2023-03-21T10:52:44;100368.97;;;14.81;64.58
33506;BME280;19843;51.040;13.782;2023-03-21T10:55:18;100370.47;;;14.95;64.21
33506;BME280;19843;51.040;13.782;2023-03-21T10:57:46;100373.03;;;14.44;63.78
33506;BME280;19843;51.040;13.782;2023-03-21T11:00:17;100361.78;;;14.71;63.53
33506;BME280;19843;51.040;13.782;2023-03-21T11:02:47;100363.78;;;14.90;63.24
33506;BME280;19843;51.040;13.782;2023-03-21T11:05:17;100362.69;;;15.23;63.71
33506;BME280;19843;51.040;13.782;2023-03-21T11:07:46;100357.41;;;15.52;63.94
33506;BME280;19843;51.040;13.782;2023-03-21T11:10:14;100351.03;;;15.84;62.45
33506;BME280;19843;51.040;13.782;2023-03-21T11:12:56;100357.91;;;15.67;60.92
33506;BME280;19843;51.040;13.782;2023-03-21T11:15:25;100359.63;;;15.68;59.78
33506;BME280;19843;51.040;13.782;2023-03-21T11:17:53;100354.72;;;15.52;60.29
33506;BME280;19843;51.040;13.782;2023-03-21T11:20:21;100345.63;;;15.22;63.38
33506;BME280;19843;51.040;13.782;2023-03-21T11:22:48;100348.00;;;15.16;61.62
33506;BME280;19843;51.040;13.782;2023-03-21T11:25:21;100347.00;;;15.38;62.34
33506;BME280;19843;51.040;13.782;2023-03-21T11:27:50;100340.66;;;15.58;63.56
33506;BME280;19843;51.040;13.782;2023-03-21T11:30:20;100346.06;;;15.58;62.61
33506;BME280;19843;51.040;13.782;2023-03-21T11:32:50;100339.47;;;15.82;61.81
33506;BME280;19843;51.040;13.782;2023-03-21T11:35:19;100330.28;;;16.04;60.83
33506;BME280;19843;51.040;13.782;2023-03-21T11:37:49;100329.44;;;16.13;61.15
33506;BME280;19843;51.040;13.782;2023-03-21T11:40:19;100323.44;;;16.10;61.23
33506;BME280;19843;51.040;13.782;2023-03-21T11:42:47;100322.91;;;16.16;60.43
33506;BME280;19843;51.040;13.782;2023-03-21T11:45:17;100315.06;;;16.32;61.84
33506;BME280;19843;51.040;13.782;2023-03-21T11:47:46;100316.91;;;16.41;59.80
33506;BME280;19843;51.040;13.782;2023-03-21T11:50:17;100309.97;;;16.29;59.64
33506;BME280;19843;51.040;13.782;2023-03-21T11:52:47;100306.13;;;16.22;58.85
33506;BME280;19843;51.040;13.782;2023-03-21T11:55:20;100300.97;;;16.19;59.19
33506;BME280;19843;51.040;13.782;2023-03-21T11:57:51;100301.22;;;15.77;60.01
33506;BME280;19843;51.040;13.782;2023-03-21T12:00:25;100295.59;;;15.69;61.63
33506;BME280;19843;51.040;13.782;2023-03-21T12:03:02;100297.09;;;15.42;62.20
33506;BME280;19843;51.040;13.782;2023-03-21T12:05:33;100288.31;;;15.59;61.96
33506;BME280;19843;51.040;13.782;2023-03-21T12:08:02;100288.50;;;15.68;61.71
33506;BME280;19843;51.040;13.782;2023-03-21T12:10:35;100280.59;;;15.85;61.07
33506;BME280;19843;51.040;13.782;2023-03-21T12:13:08;100279.19;;;16.20;60.26
33506;BME280;19843;51.040;13.782;2023-03-21T12:15:40;100280.47;;;16.06;60.29
33506;BME280;19843;51.040;13.782;2023-03-21T12:18:14;100281.88;;;15.81;61.48
33506;BME280;19843;51.040;13.782;2023-03-21T12:20:43;100278.88;;;15.84;62.00
33506;BME280;19843;51.040;13.782;2023-03-21T12:23:26;100266.81;;;16.18;60.20
33506;BME280;19843;51.040;13.782;2023-03-21T12:25:59;100265.81;;;16.38;59.89
33506;BME280;19843;51.040;13.782;2023-03-21T12:28:31;100261.81;;;16.42;59.80
33506;BME280;19843;51.040;13.782;2023-03-21T12:31:02;100259.53;;;16.47;60.17
33506;BME280;19843;51.040;13.782;2023-03-21T12:33:38;100256.13;;;16.06;59.72
33506;BME280;19843;51.040;13.782;2023-03-21T12:36:14;100252.16;;;16.11;60.07
33506;BME280;19843;51.040;13.782;2023-03-21T12:38:46;100252.28;;;16.28;61.48
33506;BME280;19843;51.040;13.782;2023-03-21T12:41:21;100258.56;;;16.29;61.59
33506;BME280;19843;51.040;13.782;2023-03-21T12:43:49;100241.59;;;16.27;60.55
33506;BME280;19843;51.040;13.782;2023-03-21T12:46:21;100243.84;;;16.41;59.13
33506;BME280;19843;51.040;13.782;2023-03-21T12:48:52;100236.63;;;16.42;58.85
33506;BME280;19843;51.040;13.782;2023-03-21T12:51:23;100240.16;;;16.52;59.89
33506;BME280;19843;51.040;13.782;2023-03-21T12:53:57;100231.28;;;16.79;60.31
33506;BME280;19843;51.040;13.782;2023-03-21T12:56:27;100231.53;;;16.86;59.34
33506;BME280;19843;51.040;13.782;2023-03-21T12:58:57;100232.53;;;16.95;59.29
33506;BME280;19843;51.040;13.782;2023-03-21T13:01:26;100227.19;;;17.03;58.78
33506;BME280;19843;51.040;13.782;2023-03-21T13:04:01;100219.44;;;16.90;59.50
33506;BME280;19843;51.040;13.782;2023-03-21T13:06:32;100219.41;;;15.84;60.92